Terminal Aerodrome Forecast
Issued by NWS Knoxville/Tri Cities, TN

Home | Current Version | Previous Version | Text Only | Print | Product List | Glossary On
Versions: 1 2 3 4 5 6 7 8 9 10 11 12 13 14 15 16 17 18 19 20 21 22
000
FTUS44 KMRX 300549 CCA
TAFCHA
TAF COR
KCHA 300549Z 3006/0106 00000KT 3SM BR SCT002
     FM301330 17004KT 4SM BR SCT004
     FM301400 17010KT P6SM BKN035
     FM301900 16015G25KT P6SM SCT050 BKN080
     FM010500 15015G25KT 4SM -SHRA VCTS SCT040CB BKN060=

USA.gov is the U.S. government's official web portal to all federal, state and local government web resources and services.